Time;durP1;ratioP1;P1;durP2;ratioP2;P2;SDS_P1;SDS_P2;PMS_P1;PMS_P2;Temp;Humidity;BMP_temperature;BMP_pressure;BME280_temperature;BME280_humidity;BME280_pressure;Samples;Min_cycle;Max_cycle;Signal;HPM_P1;HPM_P2
2024/04/20 00:00:31;;;;;;;1.25;0.70;;;;;;;7.81;82.34;99670.00;11389937;25;20072;-63
2024/04/20 00:05:35;;;;;;;0.85;0.60;;;;;;;7.87;82.03;99660.75;11439429;25;20438;-64
2024/04/20 00:10:37;;;;;;;0.90;0.30;;;;;;;7.73;80.38;99665.31;11452018;25;19992;-64
2024/04/20 00:15:41;;;;;;;1.50;0.30;;;;;;;7.60;82.31;99668.06;11403720;25;20002;-64
2024/04/20 00:20:45;;;;;;;1.25;0.50;;;;;;;7.73;81.73;99670.63;11349738;25;20005;-64
2024/04/20 00:25:48;;;;;;;0.68;0.30;;;;;;;7.92;81.90;99679.75;11405681;25;20009;-64
2024/04/20 00:30:59;;;;;;;1.63;0.50;;;;;;;7.85;81.18;99691.81;11450636;25;19993;-64
2024/04/20 00:36:02;;;;;;;2.25;0.70;;;;;;;8.00;80.73;99692.41;11399866;25;20012;-64
2024/04/20 00:41:04;;;;;;;1.10;0.47;;;;;;;8.08;80.12;99688.19;11425089;25;20009;-63
2024/04/20 00:46:06;;;;;;;1.10;0.70;;;;;;;8.02;79.30;99701.94;11399407;25;20083;-64
2024/04/20 00:51:08;;;;;;;2.80;0.75;;;;;;;8.04;78.84;99710.59;11464332;25;20078;-64
2024/04/20 00:56:11;;;;;;;1.83;0.65;;;;;;;8.03;78.94;99714.22;11456922;25;20115;-64
2024/04/20 01:01:13;;;;;;;1.85;0.95;;;;;;;8.06;79.61;99724.59;11389982;25;20013;-64
2024/04/20 01:06:15;;;;;;;0.90;0.70;;;;;;;8.00;79.93;99721.56;11440346;25;20072;-64
2024/04/20 01:11:17;;;;;;;3.00;1.25;;;;;;;8.00;80.93;99729.50;11432848;25;20139;-63
2024/04/20 01:16:19;;;;;;;2.13;1.20;;;;;;;8.00;81.62;99722.41;11419272;25;20017;-64
2024/04/20 01:21:24;;;;;;;2.40;1.52;;;;;;;7.94;80.99;99730.81;11367204;25;20017;-63
2024/04/20 01:26:26;;;;;;;2.13;1.15;;;;;;;7.96;81.25;99745.66;11399452;25;20020;-63
2024/04/20 01:31:27;;;;;;;1.42;1.30;;;;;;;8.04;81.24;99742.41;11430358;25;20435;-64
2024/04/20 01:36:30;;;;;;;3.08;1.50;;;;;;;7.89;81.78;99740.94;11386564;25;20058;-65
2024/04/20 01:41:31;;;;;;;3.78;1.38;;;;;;;7.83;82.07;99741.44;11446738;25;20144;-63
2024/04/20 01:46:33;;;;;;;2.63;1.40;;;;;;;7.80;82.64;99750.44;11454023;25;20005;-64
2024/04/20 01:51:34;;;;;;;3.50;1.63;;;;;;;7.51;83.40;99760.63;11467434;25;20294;-64
2024/04/20 01:56:37;;;;;;;4.15;1.23;;;;;;;7.48;82.62;99766.16;11413366;25;20008;-64
2024/04/20 02:01:41;;;;;;;3.17;1.48;;;;;;;7.65;82.40;99784.25;11430466;25;20071;-63
2024/04/20 02:06:43;;;;;;;3.30;0.98;;;;;;;7.23;81.33;99779.41;11443971;25;20049;-64
2024/04/20 02:11:44;;;;;;;2.13;1.00;;;;;;;7.22;81.66;99787.47;11482161;25;20012;-62
2024/04/20 02:16:46;;;;;;;3.40;0.90;;;;;;;7.12;81.19;99794.41;11463686;25;20013;-63
2024/04/20 02:21:47;;;;;;;2.40;0.73;;;;;;;7.12;78.96;99802.34;11440863;25;20025;-65
2024/04/20 02:26:49;;;;;;;2.17;0.75;;;;;;;7.06;77.79;99804.47;11478667;25;20011;-66
2024/04/20 02:31:51;;;;;;;2.58;0.77;;;;;;;6.92;77.10;99811.72;11456382;25;20027;-65
2024/04/20 02:37:10;;;;;;;2.75;1.10;;;;;;;7.06;78.98;99823.00;11438778;25;20032;-64
2024/04/20 02:42:11;;;;;;;1.05;0.60;;;;;;;7.08;76.15;99825.53;11451034;25;19992;-64
2024/04/20 02:47:13;;;;;;;1.45;0.50;;;;;;;7.00;76.30;99815.53;11469498;25;20021;-64
2024/04/20 02:52:14;;;;;;;2.75;0.90;;;;;;;7.12;76.28;99845.53;11471493;25;19996;-63
2024/04/20 02:57:16;;;;;;;1.40;0.60;;;;;;;7.03;75.23;99836.47;11451727;25;20008;-64
2024/04/20 03:02:17;;;;;;;3.35;1.17;;;;;;;7.06;74.31;99846.81;11462935;25;20652;-63
2024/04/20 03:07:18;;;;;;;2.22;0.70;;;;;;;7.10;74.67;99865.13;11423591;25;20079;-64
2024/04/20 03:12:23;;;;;;;2.92;0.85;;;;;;;7.18;75.40;99870.72;11423831;25;20033;-65
2024/04/20 03:17:25;;;;;;;2.33;0.60;;;;;;;7.33;75.79;99872.25;11451947;25;20001;-62
2024/04/20 03:22:26;;;;;;;2.45;1.17;;;;;;;7.41;75.52;99884.94;11424381;25;20042;-64
2024/04/20 03:27:28;;;;;;;3.08;0.73;;;;;;;7.47;74.60;99881.00;11437222;25;20009;-64
2024/04/20 03:32:29;;;;;;;3.70;1.10;;;;;;;7.28;73.58;99882.34;11399052;25;19997;-65
2024/04/20 03:37:32;;;;;;;2.65;1.15;;;;;;;7.27;75.05;99901.84;11473060;25;20088;-65
2024/04/20 03:42:34;;;;;;;2.33;0.90;;;;;;;7.23;75.71;99921.53;11434480;25;20413;-66
2024/04/20 03:47:36;;;;;;;3.20;1.25;;;;;;;7.41;75.59;99925.50;11421934;25;20018;-62
2024/04/20 03:52:37;;;;;;;1.88;1.05;;;;;;;7.30;75.29;99938.69;11439486;25;20005;-64
2024/04/20 03:57:40;;;;;;;2.55;1.38;;;;;;;7.30;75.74;99946.63;11425384;25;20078;-65
2024/04/20 04:02:44;;;;;;;2.10;0.95;;;;;;;7.18;75.73;99944.84;11431380;25;20016;-64
2024/04/20 04:07:45;;;;;;;3.05;1.20;;;;;;;7.25;74.98;99956.66;11459275;25;20001;-64
2024/04/20 04:12:47;;;;;;;1.58;0.70;;;;;;;7.15;75.79;99960.97;11442038;25;20041;-63
2024/04/20 04:17:49;;;;;;;3.22;0.80;;;;;;;7.32;74.16;99979.13;11417440;25;20015;-64
2024/04/20 04:22:50;;;;;;;3.92;0.82;;;;;;;7.03;73.89;99987.31;11446751;25;20041;-64
2024/04/20 04:27:54;;;;;;;2.72;1.20;;;;;;;7.13;74.95;99991.97;11377736;25;20009;-64
2024/04/20 04:32:55;;;;;;;3.50;1.40;;;;;;;7.30;73.98;100001.38;11475902;25;20076;-63
2024/04/20 04:37:58;;;;;;;1.75;1.27;;;;;;;7.33;73.15;100002.00;11454048;25;20019;-63
2024/04/20 04:43:00;;;;;;;2.35;1.02;;;;;;;7.38;74.37;100010.44;11446275;25;20080;-65
2024/04/20 04:48:03;;;;;;;1.73;0.80;;;;;;;7.57;73.29;100023.25;11429737;25;20076;-64
2024/04/20 04:53:06;;;;;;;2.13;1.00;;;;;;;7.62;73.47;100028.19;11470995;25;19994;-64
2024/04/20 04:58:07;;;;;;;3.70;1.20;;;;;;;7.52;72.30;100021.88;11468782;25;20075;-63
2024/04/20 05:03:12;;;;;;;2.25;0.90;;;;;;;7.57;72.91;100025.88;11470438;25;19994;-63
2024/04/20 05:08:16;;;;;;;2.45;0.90;;;;;;;7.75;73.32;100050.22;11425856;25;19997;-63
2024/04/20 05:13:17;;;;;;;3.35;2.42;;;;;;;7.69;72.46;100036.56;11462983;25;20019;-64
2024/04/20 05:18:20;;;;;;;3.28;2.00;;;;;;;7.74;72.67;100047.66;11450014;25;20018;-61
2024/04/20 05:23:23;;;;;;;2.28;1.00;;;;;;;7.92;74.58;100078.13;11375852;25;20358;-64
2024/04/20 05:28:25;;;;;;;2.33;1.30;;;;;;;7.94;73.64;100075.38;11458203;25;20108;-65
2024/04/20 05:33:26;;;;;;;2.25;1.27;;;;;;;8.04;74.01;100087.00;11424316;25;20449;-64
2024/04/20 05:38:28;;;;;;;3.30;1.52;;;;;;;8.07;73.68;100084.13;11450991;25;20044;-64
2024/04/20 05:43:29;;;;;;;4.28;1.58;;;;;;;8.00;74.61;100098.81;11474178;25;20210;-64
2024/04/20 05:48:33;;;;;;;5.90;1.48;;;;;;;8.08;75.75;100104.38;11472016;25;20485;-64
2024/04/20 05:53:36;;;;;;;2.08;1.38;;;;;;;8.18;75.52;100119.63;11441302;25;20001;-65
2024/04/20 05:58:37;;;;;;;3.08;1.52;;;;;;;8.19;74.41;100126.63;11444018;25;20000;-64
2024/04/20 06:03:38;;;;;;;2.30;1.50;;;;;;;8.17;75.25;100136.47;11438251;25;20001;-65
2024/04/20 06:08:40;;;;;;;4.43;1.50;;;;;;;8.18;73.21;100140.84;11412086;25;20002;-64
2024/04/20 06:13:42;;;;;;;3.85;2.47;;;;;;;8.11;72.76;100143.94;11452121;25;20002;-63
2024/04/20 06:18:43;;;;;;;4.60;2.08;;;;;;;8.41;72.34;100163.91;11414382;25;20718;-65
2024/04/20 06:23:45;;;;;;;4.80;1.50;;;;;;;8.39;68.71;100160.53;11468839;25;20347;-64
2024/04/20 06:28:47;;;;;;;3.60;1.20;;;;;;;8.25;69.46;100158.84;11459170;25;20011;-66
2024/04/20 06:33:49;;;;;;;2.50;1.48;;;;;;;8.62;68.96;100179.25;11466743;25;20429;-65
2024/04/20 06:38:50;;;;;;;2.80;1.10;;;;;;;8.71;68.32;100175.03;11425311;25;20077;-65
2024/04/20 06:43:57;;;;;;;3.80;1.55;;;;;;;8.98;67.24;100185.44;11405322;25;20001;-66
2024/04/20 06:49:01;;;;;;;4.43;1.23;;;;;;;9.26;65.38;100183.34;11463032;25;20017;-64
2024/04/20 06:54:02;;;;;;;3.33;1.50;;;;;;;9.15;63.28;100185.00;11434584;25;20008;-64
2024/04/20 06:59:04;;;;;;;3.13;1.42;;;;;;;8.76;64.40;100200.28;11456500;25;20008;-63
2024/04/20 07:04:09;;;;;;;4.45;2.08;;;;;;;9.17;64.85;100204.34;11460263;25;20001;-66
2024/04/20 07:09:10;;;;;;;7.30;1.60;;;;;;;9.27;63.74;100206.28;11438457;25;20000;-64
2024/04/20 07:14:12;;;;;;;1.95;1.30;;;;;;;8.88;63.21;100209.16;11450272;25;20354;-65
2024/04/20 07:19:14;;;;;;;4.43;1.23;;;;;;;9.04;64.80;100219.50;11473360;25;20099;-65
2024/04/20 07:24:15;;;;;;;4.18;1.38;;;;;;;8.97;62.49;100223.56;11479163;25;20368;-64
2024/04/20 07:29:19;;;;;;;2.60;1.60;;;;;;;9.29;63.03;100230.91;11456571;25;20451;-64
2024/04/20 07:34:29;;;;;;;7.63;2.15;;;;;;;9.34;61.55;100245.53;11422831;25;20000;-64
2024/04/20 07:39:31;;;;;;;2.97;1.27;;;;;;;9.12;62.32;100246.31;11407085;25;20002;-65
2024/04/20 07:44:32;;;;;;;2.17;1.17;;;;;;;8.93;62.42;100259.25;11443298;25;20448;-64
2024/04/20 07:49:34;;;;;;;2.42;1.50;;;;;;;9.12;62.21;100262.22;11446809;25;20077;-65
2024/04/20 07:54:35;;;;;;;2.95;1.25;;;;;;;9.41;61.66;100275.13;11468206;25;20000;-65
2024/04/20 07:59:39;;;;;;;2.42;1.40;;;;;;;9.65;61.63;100272.47;11455987;25;19998;-64
2024/04/20 08:04:43;;;;;;;9.63;1.52;;;;;;;9.54;58.99;100294.50;11448034;25;20013;-65
2024/04/20 08:09:45;;;;;;;2.70;1.40;;;;;;;9.09;59.88;100291.69;11429345;25;20451;-65
2024/04/20 08:14:46;;;;;;;2.65;1.08;;;;;;;9.00;61.02;100297.66;11447724;25;20335;-64
2024/04/20 08:19:48;;;;;;;1.95;0.90;;;;;;;9.33;61.76;100310.25;11405209;25;20632;-64
2024/04/20 08:24:50;;;;;;;2.53;1.27;;;;;;;9.61;60.50;100307.34;11385810;25;20345;-63
2024/04/20 08:29:51;;;;;;;2.08;1.02;;;;;;;9.75;60.21;100315.13;11396418;25;20017;-62
2024/04/20 08:34:53;;;;;;;2.20;0.90;;;;;;;10.31;59.30;100309.03;11433450;25;20010;-65
2024/04/20 08:39:54;;;;;;;1.38;0.47;;;;;;;10.78;56.91;100320.41;11423098;25;20008;-63
2024/04/20 08:44:59;;;;;;;3.22;0.80;;;;;;;10.27;54.99;100321.75;11456042;25;19998;-64
2024/04/20 08:50:01;;;;;;;2.90;0.80;;;;;;;10.41;55.41;100322.50;11425927;25;20454;-65
2024/04/20 08:55:05;;;;;;;1.90;0.55;;;;;;;10.60;55.40;100333.38;11447178;25;20018;-65
2024/04/20 09:00:07;;;;;;;3.60;0.85;;;;;;;10.78;55.07;100332.91;11404329;25;20525;-65
2024/04/20 09:05:10;;;;;;;5.15;0.80;;;;;;;11.12;55.31;100327.50;11438709;25;20023;-65
2024/04/20 09:10:12;;;;;;;2.55;0.57;;;;;;;11.17;52.65;100329.78;11450604;25;20012;-64
2024/04/20 09:15:15;;;;;;;2.78;0.70;;;;;;;11.44;52.36;100331.97;11421781;25;20087;-66
2024/04/20 09:20:18;;;;;;;1.92;0.80;;;;;;;11.41;51.62;100353.56;11436886;25;20000;-65
2024/04/20 09:25:20;;;;;;;1.33;0.67;;;;;;;11.30;52.11;100351.78;11419512;25;20009;-64
2024/04/20 09:30:25;;;;;;;1.83;0.93;;;;;;;11.36;52.42;100367.25;11416019;25;20004;-64
2024/04/20 09:35:27;;;;;;;3.40;0.47;;;;;;;11.44;51.24;100340.84;11409616;25;20000;-64
2024/04/20 09:40:33;;;;;;;1.55;0.40;;;;;;;11.89;49.93;100345.13;11367358;25;19997;-64
2024/04/20 09:45:36;;;;;;;1.08;0.52;;;;;;;12.42;46.05;100344.19;11413950;25;20713;-65
2024/04/20 09:50:41;;;;;;;;;;;;;;;13.04;44.62;100349.47;11456612;25;20016;-65
2024/04/20 09:55:46;;;;;;;2.22;0.63;;;;;;;13.28;43.92;100346.41;11442219;25;20479;-65
2024/04/20 10:00:50;;;;;;;3.85;1.35;;;;;;;13.63;42.93;100355.78;11454048;25;20007;-64
2024/04/20 10:05:54;;;;;;;3.05;0.30;;;;;;;13.82;42.19;100354.06;11417406;25;20005;-65
2024/04/20 10:10:57;;;;;;;2.80;0.20;;;;;;;13.68;41.67;100358.03;11432898;25;20528;-64
2024/04/20 10:16:00;;;;;;;2.10;0.50;;;;;;;13.52;40.54;100363.91;11424794;25;20005;-66
2024/04/20 10:21:02;;;;;;;1.37;0.30;;;;;;;12.40;41.46;100348.81;11423242;25;20174;-64
2024/04/20 10:26:05;;;;;;;2.03;0.30;;;;;;;12.11;44.10;100367.31;11383849;25;20087;-65
2024/04/20 10:31:06;;;;;;;1.48;0.65;;;;;;;12.33;45.15;100364.50;11355400;25;20029;-65
2024/04/20 10:36:14;;;;;;;2.20;0.52;;;;;;;12.29;45.70;100346.22;11421341;25;20008;-63
2024/04/20 10:41:17;;;;;;;2.20;0.30;;;;;;;12.46;45.05;100376.78;11352966;25;20756;-65
2024/04/20 10:46:22;;;;;;;2.33;0.40;;;;;;;12.58;45.76;100369.53;11378884;25;20103;-65
2024/04/20 10:51:26;;;;;;;1.40;0.20;;;;;;;12.55;44.54;100374.19;11434225;25;20509;-65
2024/04/20 10:56:31;;;;;;;1.77;0.50;;;;;;;12.33;45.33;100382.38;11475713;25;20938;-64
2024/04/20 11:01:33;;;;;;;1.80;0.28;;;;;;;11.75;47.26;100386.25;11413564;25;20012;-65
2024/04/20 11:06:36;;;;;;;1.35;0.40;;;;;;;11.88;49.54;100386.09;11421689;25;20001;-66
2024/04/20 11:11:38;;;;;;;1.88;0.40;;;;;;;12.00;49.69;100394.94;11461783;25;20012;-65
2024/04/20 11:16:40;;;;;;;1.55;0.40;;;;;;;11.98;50.66;100395.06;11436597;25;20670;-65
2024/04/20 11:21:42;;;;;;;1.15;0.50;;;;;;;12.26;52.39;100376.69;11460054;25;20002;-65
2024/04/20 11:26:43;;;;;;;1.83;0.77;;;;;;;13.66;52.03;100398.28;11424356;25;20045;-64
2024/04/20 11:31:45;;;;;;;1.80;0.80;;;;;;;13.71;49.52;100389.84;11459495;25;20004;-64
2024/04/20 11:36:46;;;;;;;1.60;0.70;;;;;;;14.09;49.88;100388.13;11450040;25;19993;-65
2024/04/20 11:41:48;;;;;;;3.08;1.52;;;;;;;14.19;48.58;100382.75;11470016;25;20057;-65
2024/04/20 11:46:50;;;;;;;2.10;1.10;;;;;;;14.04;47.75;100383.19;11468171;25;20011;-66
2024/04/20 11:57:39;;;;;;;1.85;0.80;;;;;;;13.41;49.32;100395.16;11229104;25;20049;-66
2024/04/20 12:02:42;;;;;;;1.60;0.60;;;;;;;12.81;50.67;100403.09;11430805;25;20078;-64
2024/04/20 12:07:44;;;;;;;1.10;0.55;;;;;;;11.97;51.49;100409.38;11420991;25;20674;-66
2024/04/20 12:12:45;;;;;;;2.63;0.50;;;;;;;11.77;52.85;100420.81;11457043;25;20010;-64
2024/04/20 12:17:50;;;;;;;1.60;0.60;;;;;;;10.93;59.55;100430.19;11429059;25;20000;-63
2024/04/20 12:22:52;;;;;;;2.30;0.57;;;;;;;10.88;64.85;100437.69;11425472;25;20024;-63
2024/04/20 12:27:53;;;;;;;0.82;0.50;;;;;;;11.35;60.67;100429.56;11407172;25;20001;-65
2024/04/20 12:32:54;;;;;;;1.63;0.60;;;;;;;12.01;59.44;100437.47;11408822;25;20071;-64
2024/04/20 12:37:57;;;;;;;0.60;0.45;;;;;;;12.77;57.63;100432.91;11486998;25;20497;-62
2024/04/20 12:42:58;;;;;;;0.77;0.50;;;;;;;13.58;55.87;100432.88;11492349;25;20000;-63
2024/04/20 12:48:00;;;;;;;1.17;0.52;;;;;;;14.10;52.08;100421.94;11458757;25;20016;-65
2024/04/20 12:53:02;;;;;;;2.05;0.63;;;;;;;14.74;50.27;100420.41;11388253;25;20001;-65
2024/04/20 12:58:04;;;;;;;1.13;0.40;;;;;;;15.26;48.87;100413.69;11426786;25;20012;-64
2024/04/20 13:03:06;;;;;;;1.05;0.40;;;;;;;15.42;48.55;100413.00;11471578;25;20031;-65
2024/04/20 13:08:08;;;;;;;1.13;0.20;;;;;;;15.34;48.12;100419.97;11440197;25;20752;-65
2024/04/20 13:13:14;;;;;;;1.75;0.20;;;;;;;15.29;48.22;100408.84;11387041;25;20403;-65
2024/04/20 13:18:15;;;;;;;0.50;0.20;;;;;;;15.43;48.91;100406.66;11381663;25;20001;-65
2024/04/20 13:23:20;;;;;;;1.70;0.20;;;;;;;15.43;46.89;100412.84;11438561;25;20016;-65
2024/04/20 13:28:32;;;;;;;0.85;0.40;;;;;;;15.17;47.07;100415.41;11457265;25;20819;-66
2024/04/20 13:33:34;;;;;;;1.00;0.40;;;;;;;14.98;48.55;100416.34;11445292;25;20030;-64
2024/04/20 13:38:37;;;;;;;0.43;0.25;;;;;;;14.49;49.88;100409.31;11451988;25;19998;-64
2024/04/20 13:43:38;;;;;;;0.40;0.30;;;;;;;14.27;49.54;100431.06;11420366;25;19998;-65
2024/04/20 13:48:41;;;;;;;0.55;0.10;;;;;;;13.93;50.55;100439.53;11418768;25;20007;-65
2024/04/20 13:53:46;;;;;;;0.80;0.50;;;;;;;13.50;56.30;100464.84;11447204;25;20020;-65
2024/04/20 13:58:47;;;;;;;;;;;;;;;13.11;59.66;100457.50;11470111;25;20007;-66
2024/04/20 14:03:49;;;;;;;1.15;0.30;;;;;;;12.58;62.39;100437.16;11428510;25;19923;-67
2024/04/20 14:08:51;;;;;;;0.68;0.20;;;;;;;12.50;61.77;100448.47;11462190;25;20545;-66
2024/04/20 14:13:53;;;;;;;0.20;0.10;;;;;;;12.20;61.16;100462.63;11462651;25;20048;-67
2024/04/20 14:18:55;;;;;;;0.82;0.22;;;;;;;11.46;63.99;100447.34;11475345;25;20752;-68
2024/04/20 14:23:57;;;;;;;0.88;0.28;;;;;;;11.98;64.25;100427.06;11408010;25;20028;-68
2024/04/20 14:28:58;;;;;;;0.93;0.20;;;;;;;12.33;62.34;100398.38;11389001;25;20047;-68
2024/04/20 14:34:00;;;;;;;0.47;0.32;;;;;;;12.87;63.63;100410.59;11425920;25;19996;-68
2024/04/20 14:39:05;;;;;;;0.22;0.00;;;;;;;12.80;60.83;100405.91;11439658;25;20127;-65
2024/04/20 14:44:06;;;;;;;0.77;0.30;;;;;;;12.67;58.60;100398.13;11472254;25;20008;-66
2024/04/20 14:49:15;;;;;;;1.30;0.05;;;;;;;12.96;60.48;100400.91;11463132;25;20012;-65
2024/04/20 14:54:19;;;;;;;0.85;0.22;;;;;;;13.13;59.23;100395.91;11417056;25;20013;-64
2024/04/20 14:59:22;;;;;;;0.80;0.08;;;;;;;12.95;57.91;100399.22;11462352;25;20004;-65
2024/04/20 15:04:23;;;;;;;0.17;0.10;;;;;;;12.49;59.53;100397.88;11463705;25;20011;-66
2024/04/20 15:09:25;;;;;;;0.88;0.40;;;;;;;12.44;62.59;100416.13;11471014;25;20135;-64
2024/04/20 15:14:26;;;;;;;5.85;1.02;;;;;;;12.23;66.57;100435.66;11448882;25;19992;-65
2024/04/20 15:19:28;;;;;;;0.45;0.30;;;;;;;11.59;61.72;100469.38;11486233;25;20000;-65
2024/04/20 15:24:30;;;;;;;2.60;0.40;;;;;;;11.08;65.98;100488.53;11459728;25;20016;-64
2024/04/20 15:29:34;;;;;;;1.30;0.40;;;;;;;10.95;67.83;100508.16;11443331;25;20001;-65
2024/04/20 15:34:38;;;;;;;0.80;0.20;;;;;;;10.85;70.35;100512.50;11490388;25;20507;-65
2024/04/20 15:39:42;;;;;;;1.45;0.40;;;;;;;10.68;70.96;100504.97;11442741;25;20124;-64
2024/04/20 15:44:43;;;;;;;1.15;0.40;;;;;;;10.73;72.21;100494.81;11413515;25;20059;-65
2024/04/20 15:49:47;;;;;;;1.05;0.20;;;;;;;10.84;72.72;100493.97;11456309;25;20004;-64
2024/04/20 15:54:49;;;;;;;0.73;0.30;;;;;;;10.99;75.69;100489.28;11473853;25;20102;-64
2024/04/20 15:59:51;;;;;;;0.55;0.13;;;;;;;11.01;74.31;100479.34;11444232;25;20008;-64
2024/04/20 16:04:52;;;;;;;0.32;0.20;;;;;;;11.12;72.95;100492.66;11417136;25;1213004;-66
2024/04/20 16:09:54;;;;;;;2.13;0.20;;;;;;;10.99;72.50;100486.59;11470095;25;20045;-65
2024/04/20 16:14:56;;;;;;;0.50;0.22;;;;;;;10.95;72.68;100457.53;11411433;25;20016;-65
2024/04/20 16:19:59;;;;;;;0.70;0.45;;;;;;;10.89;72.09;100468.69;11470659;25;20422;-64
2024/04/20 16:25:01;;;;;;;1.50;0.50;;;;;;;10.98;71.80;100471.63;11465568;25;20005;-65
2024/04/20 16:30:03;;;;;;;1.52;1.00;;;;;;;10.86;73.02;100457.44;11422061;25;20000;-64
2024/04/20 16:35:06;;;;;;;0.60;0.40;;;;;;;11.01;73.62;100474.03;11472192;25;20048;-64
2024/04/20 16:40:09;;;;;;;0.95;0.50;;;;;;;11.04;73.87;100468.47;11405034;25;20089;-64
2024/04/20 16:45:11;;;;;;;1.07;0.43;;;;;;;10.94;71.99;100474.53;11419653;25;20068;-64
2024/04/20 16:50:13;;;;;;;1.13;0.30;;;;;;;10.89;73.02;100467.84;11448011;25;20661;-65
2024/04/20 16:55:21;;;;;;;1.60;0.85;;;;;;;10.92;73.24;100473.78;11403199;25;19998;-65
2024/04/20 17:00:28;;;;;;;0.82;0.65;;;;;;;10.80;75.48;100472.06;11345557;25;19999;-64
2024/04/20 17:05:30;;;;;;;0.80;0.50;;;;;;;10.76;75.93;100462.63;11422753;25;20020;-64
2024/04/20 17:10:31;;;;;;;1.25;0.57;;;;;;;10.68;74.97;100489.00;11437319;25;20008;-65
2024/04/20 17:15:33;;;;;;;1.20;0.80;;;;;;;10.51;75.68;100493.81;11467309;25;20072;-64
2024/04/20 17:20:35;;;;;;;1.48;0.60;;;;;;;10.23;74.62;100479.91;11467325;25;19997;-62
2024/04/20 17:25:39;;;;;;;0.65;0.40;;;;;;;10.01;72.73;100471.84;11449170;25;20614;-65
2024/04/20 17:30:40;;;;;;;1.20;0.45;;;;;;;10.13;72.85;100470.91;11439966;25;20002;-65
2024/04/20 17:35:42;;;;;;;2.17;0.43;;;;;;;10.10;71.88;100463.16;11457296;25;20014;-65
2024/04/20 17:40:55;;;;;;;1.33;0.47;;;;;;;10.21;73.81;100467.69;11454672;25;20085;-64
2024/04/20 17:46:02;;;;;;;0.85;0.50;;;;;;;10.02;72.86;100473.53;11468502;25;20002;-63
2024/04/20 17:51:08;;;;;;;1.10;0.82;;;;;;;10.03;73.04;100467.28;11453855;25;19996;-64
2024/04/20 17:56:10;;;;;;;1.65;0.70;;;;;;;9.95;71.60;100459.84;11456377;25;20091;-65
2024/04/20 18:01:16;;;;;;;1.10;0.63;;;;;;;10.00;73.00;100467.50;11361352;25;20001;-65
2024/04/20 18:06:19;;;;;;;3.10;1.07;;;;;;;10.00;73.14;100467.50;11465859;25;20237;-65
2024/04/20 18:11:21;;;;;;;3.95;1.98;;;;;;;10.07;74.71;100466.06;11484061;25;20413;-65
2024/04/20 18:16:24;;;;;;;1.90;1.00;;;;;;;10.02;72.49;100470.88;11471822;25;20000;-64
2024/04/20 18:21:27;;;;;;;1.20;0.70;;;;;;;9.99;74.17;100479.94;11409951;25;20068;-66
2024/04/20 18:26:28;;;;;;;1.42;0.70;;;;;;;9.84;72.65;100484.56;11425833;25;20071;-64
2024/04/20 18:31:30;;;;;;;1.65;0.95;;;;;;;9.81;72.15;100489.28;11471566;25;20091;-64
2024/04/20 18:36:31;;;;;;;1.70;0.70;;;;;;;9.84;72.40;100492.53;11399281;25;20005;-64
2024/04/20 18:41:33;;;;;;;2.08;1.00;;;;;;;9.80;72.50;100500.88;11419321;25;20012;-66
2024/04/20 18:46:34;;;;;;;1.77;1.23;;;;;;;9.75;72.67;100495.88;11447638;25;20136;-64
2024/04/20 18:51:36;;;;;;;1.70;1.15;;;;;;;9.70;73.91;100487.41;11444816;25;19998;-64
2024/04/20 18:56:37;;;;;;;3.10;1.63;;;;;;;9.74;72.73;100494.19;11455281;25;20077;-64
2024/04/20 19:01:41;;;;;;;2.67;1.13;;;;;;;9.44;71.28;100495.44;11398365;25;20057;-64
2024/04/20 19:06:42;;;;;;;1.73;0.88;;;;;;;9.39;74.22;100494.94;11481466;25;20082;-65
2024/04/20 19:11:44;;;;;;;2.05;0.93;;;;;;;9.38;73.97;100482.59;11448528;25;20010;-64
2024/04/20 19:16:45;;;;;;;2.55;0.80;;;;;;;9.41;72.93;100478.88;11421157;25;20836;-63
2024/04/20 19:21:47;;;;;;;3.20;1.10;;;;;;;9.55;73.04;100478.75;11478380;25;19997;-64
2024/04/20 19:26:54;;;;;;;2.45;1.20;;;;;;;9.58;75.07;100488.28;11476241;25;20031;-64
2024/04/20 19:31:56;;;;;;;3.15;1.77;;;;;;;9.61;74.48;100496.03;11426584;25;20008;-64
2024/04/20 19:37:00;;;;;;;3.80;1.87;;;;;;;9.63;75.67;100496.78;11479294;25;20358;-65
2024/04/20 19:42:01;;;;;;;2.72;1.50;;;;;;;9.56;74.38;100483.06;11435759;25;21101;-64
2024/04/20 19:47:03;;;;;;;3.38;1.42;;;;;;;9.59;74.61;100488.16;11393892;25;20427;-66
2024/04/20 19:52:06;;;;;;;3.72;1.48;;;;;;;9.57;74.52;100486.59;11472192;25;20445;-66
2024/04/20 19:57:08;;;;;;;2.50;1.10;;;;;;;9.50;73.92;100471.09;11428075;25;20519;-65
2024/04/20 20:02:10;;;;;;;2.08;1.40;;;;;;;9.46;74.89;100474.94;11415941;25;20005;-63
2024/04/20 20:07:11;;;;;;;2.67;1.25;;;;;;;9.45;74.78;100465.25;11425954;25;20003;-65
2024/04/20 20:12:13;;;;;;;2.78;1.30;;;;;;;9.42;74.00;100468.16;11424547;25;20008;-65
2024/04/20 20:17:17;;;;;;;2.37;0.97;;;;;;;9.38;73.44;100472.84;11402191;25;20345;-65
2024/04/20 20:22:18;;;;;;;2.25;1.08;;;;;;;9.45;73.09;100467.09;11439080;25;20422;-64
2024/04/20 20:27:21;;;;;;;2.45;1.30;;;;;;;9.38;72.73;100469.31;11478910;25;20068;-64
2024/04/20 20:32:25;;;;;;;2.83;1.40;;;;;;;9.24;72.83;100456.19;11481256;25;20033;-65
2024/04/20 20:37:27;;;;;;;2.88;1.25;;;;;;;9.31;72.85;100454.81;11405225;25;20081;-64
2024/04/20 20:42:30;;;;;;;2.10;1.23;;;;;;;9.23;71.98;100457.97;11428553;25;19993;-64
2024/04/20 20:47:34;;;;;;;2.05;1.10;;;;;;;9.29;73.67;100449.59;11430833;25;20305;-65
2024/04/20 20:52:36;;;;;;;2.38;1.23;;;;;;;9.30;72.86;100447.78;11454774;25;20014;-65
2024/04/20 20:57:39;;;;;;;3.58;1.10;;;;;;;9.18;73.87;100437.06;11428554;25;20001;-64
2024/04/20 21:02:42;;;;;;;3.00;0.90;;;;;;;9.25;72.84;100428.66;11385575;25;21008;-64
2024/04/20 21:07:44;;;;;;;3.00;1.00;;;;;;;9.14;74.33;100419.69;11422597;25;20008;-64
2024/04/20 21:12:46;;;;;;;2.45;0.90;;;;;;;9.13;74.00;100415.31;11427477;25;20008;-64
2024/04/20 21:17:48;;;;;;;3.17;1.30;;;;;;;9.18;73.19;100418.47;11425222;25;20034;-64
2024/04/20 21:22:50;;;;;;;3.25;1.50;;;;;;;9.04;73.85;100402.69;11440337;25;20021;-63
2024/04/20 21:27:51;;;;;;;2.45;1.40;;;;;;;9.20;74.85;100413.91;11455632;25;19997;-66
2024/04/20 21:32:53;;;;;;;5.22;1.63;;;;;;;9.09;74.31;100389.94;11465699;25;20069;-64
2024/04/20 21:37:54;;;;;;;4.35;1.67;;;;;;;9.06;74.34;100395.47;11445677;25;20825;-64
2024/04/20 21:42:56;;;;;;;3.22;1.40;;;;;;;9.09;75.17;100391.75;11442150;25;20731;-62
2024/04/20 21:47:58;;;;;;;5.20;1.48;;;;;;;9.08;75.48;100372.28;11452794;25;20470;-64
2024/04/20 21:53:00;;;;;;;1.80;1.20;;;;;;;9.20;77.02;100378.53;11447686;25;20609;-63
2024/04/20 21:58:03;;;;;;;5.43;1.55;;;;;;;9.09;76.38;100375.81;11436450;25;20001;-64
2024/04/20 22:03:05;;;;;;;2.97;1.37;;;;;;;9.07;76.96;100370.63;11404148;25;20049;-63
2024/04/20 22:08:07;;;;;;;3.00;1.45;;;;;;;8.89;77.10;100369.25;11445064;25;20018;-60
2024/04/20 22:13:10;;;;;;;2.47;1.30;;;;;;;8.91;76.18;100362.06;11438948;25;20091;-64
2024/04/20 22:18:12;;;;;;;3.47;1.45;;;;;;;8.83;77.10;100365.25;11435771;25;19997;-64
2024/04/20 22:23:15;;;;;;;6.45;1.40;;;;;;;8.88;78.42;100360.47;11454123;25;20010;-63
2024/04/20 22:28:18;;;;;;;3.00;1.27;;;;;;;8.80;78.12;100355.72;11358101;25;20154;-62
2024/04/20 22:33:20;;;;;;;2.63;1.42;;;;;;;8.69;77.50;100342.34;11401329;25;20485;-64
2024/04/20 22:38:22;;;;;;;5.07;1.58;;;;;;;8.74;79.16;100345.53;11443319;25;20438;-64
2024/04/20 22:43:23;;;;;;;3.85;1.35;;;;;;;8.71;78.84;100335.13;11465937;25;19997;-63
2024/04/20 22:48:25;;;;;;;1.90;1.30;;;;;;;8.85;78.06;100342.94;11439884;25;20969;-63
2024/04/20 22:53:27;;;;;;;2.63;1.40;;;;;;;8.85;77.92;100337.63;11430540;25;20006;-63
2024/04/20 22:58:29;;;;;;;2.22;1.10;;;;;;;8.98;78.47;100328.81;11460597;25;20085;-64
2024/04/20 23:03:30;;;;;;;3.22;1.30;;;;;;;8.88;77.17;100336.56;11436638;25;20390;-64
2024/04/20 23:08:32;;;;;;;2.05;0.77;;;;;;;8.86;77.23;100330.53;11428670;25;20083;-65
2024/04/20 23:13:33;;;;;;;1.85;1.13;;;;;;;8.88;77.99;100322.47;11440440;25;20001;-64
2024/04/20 23:18:35;;;;;;;3.58;1.42;;;;;;;8.96;77.51;100318.28;11404166;25;20704;-64
2024/04/20 23:23:38;;;;;;;3.90;1.25;;;;;;;8.98;77.52;100326.16;11415393;25;20057;-64
2024/04/20 23:28:41;;;;;;;1.98;1.00;;;;;;;9.01;77.72;100315.31;11394713;25;20019;-64